Time;durP1;ratioP1;P1;durP2;ratioP2;P2;SDS_P1;SDS_P2;PMS_P1;PMS_P2;Temp;Humidity;BMP_temperature;BMP_pressure;BME280_temperature;BME280_humidity;BME280_pressure;Samples;Min_cycle;Max_cycle;Signal;HPM_P1;HPM_P2
2023/08/27 00:00:57;;;;;;;17.93;4.50;;;17.20;99.90;;;;;;5083721;28;20541;-70
2023/08/27 00:03:43;;;;;;;6.50;3.97;;;17.20;99.90;;;;;;5084212;28;20488;-70
2023/08/27 00:06:28;;;;;;;10.93;4.40;;;17.20;99.90;;;;;;5082910;28;20420;-70
2023/08/27 00:09:16;;;;;;;6.50;3.80;;;17.10;99.90;;;;;;5076818;28;20471;-70
2023/08/27 00:12:01;;;;;;;9.30;3.77;;;17.00;99.90;;;;;;5076887;28;20521;-70
2023/08/27 00:14:47;;;;;;;7.33;3.63;;;17.00;99.90;;;;;;5084862;28;20451;-70
2023/08/27 00:17:32;;;;;;;6.37;3.50;;;17.00;99.90;;;;;;5081639;28;20420;-70
2023/08/27 00:20:18;;;;;;;7.53;4.30;;;17.00;99.90;;;;;;5080458;28;20970;-70
2023/08/27 00:23:04;;;;;;;7.10;3.80;;;16.90;99.90;;;;;;5091161;28;21082;-70
2023/08/27 00:25:51;;;;;;;6.23;4.50;;;16.80;99.90;;;;;;5090932;28;20446;-70
2023/08/27 00:28:37;;;;;;;9.57;4.60;;;16.90;99.90;;;;;;5083779;28;20486;-70
2023/08/27 00:31:22;;;;;;;9.87;3.83;;;17.00;99.90;;;;;;5084238;28;20463;-70
2023/08/27 00:34:08;;;;;;;5.37;4.10;;;16.90;99.90;;;;;;5090729;28;20440;-70
2023/08/27 00:36:53;;;;;;;6.03;4.33;;;16.90;99.90;;;;;;5089855;28;20420;-70
2023/08/27 00:39:39;;;;;;;6.20;4.03;;;16.80;99.90;;;;;;5086553;28;20936;-70
2023/08/27 00:42:27;;;;;;;12.67;4.40;;;16.80;99.90;;;;;;5086014;28;21099;-70
2023/08/27 00:45:12;;;;;;;5.63;3.90;;;16.80;99.90;;;;;;5087983;28;20446;-70
2023/08/27 00:48:00;;;;;;;7.67;4.40;;;16.90;99.90;;;;;;5087914;28;20472;-70
2023/08/27 00:50:45;;;;;;;7.70;4.00;;;16.80;99.90;;;;;;5090037;28;20439;-70
2023/08/27 00:53:31;;;;;;;9.13;3.50;;;16.90;99.90;;;;;;5086586;28;20957;-70
2023/08/27 00:56:17;;;;;;;6.30;3.47;;;16.90;99.90;;;;;;5087767;28;20535;-70
2023/08/27 00:59:04;;;;;;;5.63;3.87;;;17.00;99.90;;;;;;5082665;28;20421;-70
2023/08/27 01:01:51;;;;;;;5.70;3.87;;;17.00;99.90;;;;;;5085826;28;20446;-70
2023/08/27 01:04:37;;;;;;;6.63;3.50;;;16.90;99.90;;;;;;5086979;28;20413;-70
2023/08/27 01:07:32;;;;;;;10.00;3.70;;;17.00;99.90;;;;;;5087380;28;20417;-70
2023/08/27 01:10:24;;;;;;;6.43;3.47;;;17.10;99.90;;;;;;5088162;28;20455;-70
2023/08/27 01:13:15;;;;;;;5.53;4.30;;;16.80;99.90;;;;;;5086550;28;20429;-70
2023/08/27 01:16:03;;;;;;;6.60;4.20;;;16.60;99.90;;;;;;5082099;28;20516;-70
2023/08/27 01:18:50;;;;;;;15.97;4.00;;;16.50;99.90;;;;;;5082359;28;20463;-70
2023/08/27 01:21:37;;;;;;;7.40;6.67;;;16.50;99.90;;;;;;5081482;28;20432;-70
2023/08/27 01:24:22;;;;;;;6.10;4.50;;;16.50;99.90;;;;;;5087809;28;20440;-70
2023/08/27 01:27:12;;;;;;;6.20;4.17;;;16.50;99.90;;;;;;5081813;28;20460;-70
2023/08/27 01:30:06;;;;;;;7.63;3.80;;;16.50;99.90;;;;;;5079091;28;21194;-70
2023/08/27 01:33:00;;;;;;;6.97;4.23;;;16.60;99.90;;;;;;5083888;28;20499;-70
2023/08/27 01:35:46;;;;;;;7.10;3.90;;;16.70;99.90;;;;;;5082201;28;20590;-70
2023/08/27 01:38:33;;;;;;;8.27;3.63;;;16.80;99.90;;;;;;5081368;28;20548;-70
2023/08/27 01:41:19;;;;;;;11.10;3.73;;;16.70;99.90;;;;;;5083920;28;20617;-70
2023/08/27 01:44:05;;;;;;;8.70;3.90;;;16.60;99.90;;;;;;5084318;28;20501;-70
2023/08/27 01:46:50;;;;;;;14.83;4.50;;;16.70;99.90;;;;;;5084523;28;20800;-70
2023/08/27 01:49:36;;;;;;;13.03;3.67;;;16.80;99.90;;;;;;5084118;28;20490;-70
2023/08/27 01:52:22;;;;;;;6.30;3.60;;;16.80;99.90;;;;;;5084240;28;20491;-70
2023/08/27 01:55:10;;;;;;;7.20;3.60;;;16.90;99.90;;;;;;5080187;28;20501;-70
2023/08/27 01:57:55;;;;;;;12.07;3.57;;;16.80;99.90;;;;;;5075527;28;20429;-70
2023/08/27 02:00:42;;;;;;;11.67;3.90;;;16.70;99.90;;;;;;5082728;28;20589;-70
2023/08/27 02:03:28;;;;;;;8.93;3.70;;;16.70;99.90;;;;;;5081161;28;20430;-70
2023/08/27 02:06:13;;;;;;;8.13;3.40;;;16.80;99.90;;;;;;5087383;28;21229;-70
2023/08/27 02:08:59;;;;;;;10.07;4.23;;;16.80;99.90;;;;;;5079443;28;20592;-70
2023/08/27 02:11:46;;;;;;;6.53;3.40;;;16.90;99.90;;;;;;5078802;28;20528;-70
2023/08/27 02:14:32;;;;;;;9.40;3.43;;;16.80;99.90;;;;;;5081775;28;20446;-70
2023/08/27 02:17:18;;;;;;;7.13;4.30;;;16.80;99.90;;;;;;5080001;28;20803;-70
2023/08/27 02:20:06;;;;;;;9.73;4.23;;;16.90;99.90;;;;;;5082448;28;20848;-70
2023/08/27 02:22:52;;;;;;;6.67;3.73;;;16.70;99.90;;;;;;5079528;28;20499;-70
2023/08/27 02:25:38;;;;;;;8.03;3.53;;;16.70;99.90;;;;;;5080645;28;20487;-70
2023/08/27 02:28:26;;;;;;;7.87;3.93;;;16.70;99.90;;;;;;5076044;28;21102;-70
2023/08/27 02:31:11;;;;;;;5.00;3.13;;;16.80;99.90;;;;;;5079737;28;20579;-70
2023/08/27 02:33:58;;;;;;;7.77;3.07;;;16.70;99.90;;;;;;5082388;28;20523;-70
2023/08/27 02:36:43;;;;;;;6.03;3.57;;;16.60;99.90;;;;;;5080801;28;20426;-70
2023/08/27 02:39:29;;;;;;;5.37;4.00;;;16.60;99.90;;;;;;5080488;28;20443;-70
2023/08/27 02:42:15;;;;;;;6.90;3.43;;;16.60;99.90;;;;;;5077138;28;20468;-70
2023/08/27 02:45:02;;;;;;;6.80;3.63;;;16.50;99.90;;;;;;5079292;28;20982;-70
2023/08/27 02:47:47;;;;;;;6.53;3.17;;;16.50;99.90;;;;;;5081623;28;20436;-70
2023/08/27 02:50:33;;;;;;;6.80;3.30;;;16.50;99.90;;;;;;5083424;28;20552;-70
2023/08/27 02:53:19;;;;;;;4.27;2.93;;;16.60;99.90;;;;;;5081021;28;20480;-70
2023/08/27 02:56:04;;;;;;;5.83;3.37;;;16.70;99.90;;;;;;5077483;28;20444;-70
2023/08/27 02:58:50;;;;;;;5.53;3.33;;;16.80;99.90;;;;;;5077499;28;20435;-70
2023/08/27 03:01:37;;;;;;;5.47;3.00;;;16.90;99.90;;;;;;5077860;28;20466;-70
2023/08/27 03:04:22;;;;;;;8.10;3.27;;;16.90;99.90;;;;;;5080052;28;20947;-70
2023/08/27 03:07:08;;;;;;;10.03;3.97;;;16.90;99.90;;;;;;5080716;28;20420;-70
2023/08/27 03:09:54;;;;;;;5.87;3.77;;;16.90;99.90;;;;;;5083040;28;20473;-70
2023/08/27 03:12:39;;;;;;;10.63;3.90;;;16.90;99.90;;;;;;5080447;28;20455;-70
2023/08/27 03:15:25;;;;;;;6.73;3.37;;;17.00;99.90;;;;;;5080085;28;20428;-70
2023/08/27 03:18:12;;;;;;;7.30;3.37;;;17.00;99.90;;;;;;5078657;28;20534;-70
2023/08/27 03:20:58;;;;;;;5.63;3.60;;;16.90;99.90;;;;;;5079598;28;20455;-70
2023/08/27 03:23:44;;;;;;;11.33;3.20;;;16.90;99.90;;;;;;5080416;28;20500;-70
2023/08/27 03:26:29;;;;;;;16.23;4.03;;;16.80;99.90;;;;;;5076966;28;20971;-70
2023/08/27 03:29:15;;;;;;;4.80;3.00;;;16.90;99.90;;;;;;5081763;28;20487;-70
2023/08/27 03:32:01;;;;;;;4.20;3.23;;;16.90;99.90;;;;;;5080038;28;20601;-70
2023/08/27 03:34:48;;;;;;;5.40;3.67;;;16.80;99.90;;;;;;5080224;28;20418;-70
2023/08/27 03:37:34;;;;;;;5.17;3.30;;;16.70;99.90;;;;;;5080099;28;20445;-70
2023/08/27 03:40:21;;;;;;;7.47;3.80;;;16.80;99.90;;;;;;5082003;28;20415;-70
2023/08/27 03:43:06;;;;;;;7.13;3.90;;;16.80;99.90;;;;;;5084089;28;20458;-70
2023/08/27 03:45:53;;;;;;;6.77;3.33;;;16.80;99.90;;;;;;5072447;28;20464;-69
2023/08/27 03:48:38;;;;;;;10.13;3.67;;;16.90;99.90;;;;;;5079020;28;20443;-70
2023/08/27 03:51:28;;;;;;;6.20;3.47;;;17.00;99.90;;;;;;5075149;28;21202;-70
2023/08/27 03:54:14;;;;;;;5.50;3.50;;;17.10;99.90;;;;;;5077215;28;20456;-70
2023/08/27 03:57:00;;;;;;;14.10;6.40;;;17.10;99.90;;;;;;5076136;28;20961;-70
2023/08/27 03:59:45;;;;;;;7.53;5.37;;;17.00;99.90;;;;;;5085100;28;20985;-70
2023/08/27 04:02:31;;;;;;;10.70;4.77;;;17.00;99.90;;;;;;5079598;28;20466;-70
2023/08/27 04:05:17;;;;;;;6.50;3.73;;;17.00;99.90;;;;;;5082570;28;20525;-70
2023/08/27 04:08:06;;;;;;;6.10;3.67;;;17.10;99.90;;;;;;5077777;28;20998;-70
2023/08/27 04:10:53;;;;;;;5.27;3.50;;;17.00;99.90;;;;;;5077767;28;20818;-70
2023/08/27 04:13:39;;;;;;;3.97;3.13;;;16.80;99.90;;;;;;5079430;28;20958;-70
2023/08/27 04:16:24;;;;;;;5.07;3.23;;;16.80;99.90;;;;;;5076038;28;20425;-70
2023/08/27 04:19:10;;;;;;;5.60;3.60;;;16.80;99.90;;;;;;5080833;28;20443;-70
2023/08/27 04:21:55;;;;;;;6.13;3.90;;;16.80;99.90;;;;;;5074318;28;20581;-70
2023/08/27 04:24:43;;;;;;;4.70;3.20;;;16.90;99.90;;;;;;5079577;28;20464;-70
2023/08/27 04:27:29;;;;;;;3.67;2.90;;;16.90;99.90;;;;;;5077063;28;20418;-70
2023/08/27 04:30:15;;;;;;;9.50;3.73;;;16.90;99.90;;;;;;5079362;28;20468;-70
2023/08/27 04:33:01;;;;;;;4.97;2.90;;;16.90;99.90;;;;;;5073456;28;20466;-70
2023/08/27 04:35:49;;;;;;;4.63;3.30;;;16.70;99.90;;;;;;5077644;28;20442;-70
2023/08/27 04:38:35;;;;;;;5.00;3.30;;;16.60;99.90;;;;;;5075439;28;20437;-70
2023/08/27 04:41:22;;;;;;;5.83;3.57;;;16.70;99.90;;;;;;5075765;28;21015;-70
2023/08/27 04:44:08;;;;;;;4.70;2.83;;;16.60;99.90;;;;;;5080310;28;20497;-70
2023/08/27 04:46:54;;;;;;;10.70;3.53;;;16.70;99.90;;;;;;5080735;28;20878;-70
2023/08/27 04:49:40;;;;;;;7.80;3.37;;;16.70;99.90;;;;;;5074655;28;20561;-70
2023/08/27 04:52:25;;;;;;;6.00;3.40;;;16.70;99.90;;;;;;5076112;28;20940;-70
2023/08/27 04:55:11;;;;;;;5.03;2.93;;;16.60;99.90;;;;;;5080232;28;20579;-69
2023/08/27 04:57:58;;;;;;;8.03;3.80;;;16.70;99.90;;;;;;5074471;28;20429;-70
2023/08/27 05:00:44;;;;;;;8.87;3.57;;;16.60;99.90;;;;;;5082854;28;20429;-70
2023/08/27 05:03:29;;;;;;;3.57;3.10;;;16.60;99.90;;;;;;5072296;28;20791;-70
2023/08/27 05:06:15;;;;;;;5.53;3.57;;;16.70;99.90;;;;;;5082391;28;20514;-70
2023/08/27 05:09:00;;;;;;;4.43;3.07;;;16.80;99.90;;;;;;5078658;28;20451;-69
2023/08/27 05:11:46;;;;;;;5.40;3.40;;;16.70;99.90;;;;;;5081650;28;20847;-70
2023/08/27 05:14:33;;;;;;;10.93;3.13;;;16.80;99.90;;;;;;5088570;28;20436;-70
2023/08/27 05:17:19;;;;;;;4.80;3.30;;;16.80;99.90;;;;;;5080965;28;20410;-70
2023/08/27 05:20:07;;;;;;;4.93;2.97;;;16.70;99.90;;;;;;5081481;28;20442;-70
2023/08/27 05:22:52;;;;;;;11.70;3.83;;;16.80;99.90;;;;;;5084599;28;20818;-70
2023/08/27 05:25:38;;;;;;;11.40;4.07;;;16.80;99.90;;;;;;5085313;28;20565;-70
2023/08/27 05:28:24;;;;;;;10.80;3.20;;;16.80;99.90;;;;;;5075827;28;20810;-69
2023/08/27 05:31:11;;;;;;;7.13;2.97;;;16.90;99.90;;;;;;5087064;28;20497;-69
2023/08/27 05:33:56;;;;;;;5.87;2.93;;;17.00;99.90;;;;;;5086117;28;20444;-69
2023/08/27 05:36:42;;;;;;;5.03;3.30;;;17.00;99.90;;;;;;5083250;28;20441;-69
2023/08/27 05:39:28;;;;;;;5.33;4.00;;;16.80;99.90;;;;;;5086254;28;20473;-70
2023/08/27 05:42:14;;;;;;;9.43;3.70;;;16.90;99.90;;;;;;5077437;28;20539;-70
2023/08/27 05:45:00;;;;;;;8.40;3.30;;;17.00;99.90;;;;;;5079348;28;20447;-70
2023/08/27 05:47:47;;;;;;;4.60;3.50;;;17.00;99.90;;;;;;5076150;28;20426;-69
2023/08/27 05:50:34;;;;;;;12.30;3.87;;;17.10;99.90;;;;;;5083189;28;20505;-70
2023/08/27 05:53:20;;;;;;;5.90;3.33;;;17.10;99.90;;;;;;5080440;28;20442;-70
2023/08/27 05:56:05;;;;;;;4.30;3.67;;;17.20;99.90;;;;;;5083193;28;20475;-70
2023/08/27 05:58:51;;;;;;;4.80;2.80;;;17.20;99.90;;;;;;5081254;28;20564;-70
2023/08/27 06:01:37;;;;;;;5.70;3.23;;;17.20;99.90;;;;;;5078694;28;20469;-70
2023/08/27 06:04:25;;;;;;;4.53;3.20;;;17.30;99.90;;;;;;5084764;28;20517;-70
2023/08/27 06:07:11;;;;;;;6.33;3.87;;;17.40;99.90;;;;;;5080644;28;20500;-70
2023/08/27 06:09:56;;;;;;;6.17;3.73;;;17.40;99.90;;;;;;5071635;28;20513;-70
2023/08/27 06:12:42;;;;;;;6.47;3.60;;;17.30;99.90;;;;;;5082588;28;20440;-70
2023/08/27 06:15:28;;;;;;;6.83;3.57;;;17.40;99.90;;;;;;5074254;28;20454;-70
2023/08/27 06:18:15;;;;;;;13.83;3.03;;;17.50;99.90;;;;;;5076132;28;20513;-69
2023/08/27 06:21:03;;;;;;;9.57;3.40;;;17.60;99.90;;;;;;5082931;28;20492;-70
2023/08/27 06:23:48;;;;;;;4.73;3.20;;;17.70;99.90;;;;;;5079407;28;20484;-70
2023/08/27 06:26:34;;;;;;;7.73;3.50;;;17.70;99.90;;;;;;5078385;28;20448;-70
2023/08/27 06:29:20;;;;;;;6.53;3.20;;;17.70;99.90;;;;;;5081140;28;20451;-70
2023/08/27 06:32:06;;;;;;;9.07;3.67;;;17.70;99.90;;;;;;5078158;28;20465;-69
2023/08/27 06:34:52;;;;;;;5.07;3.50;;;17.70;99.90;;;;;;5080897;28;20503;-70
2023/08/27 06:37:39;;;;;;;4.40;3.20;;;17.70;99.90;;;;;;5081544;28;20433;-69
2023/08/27 06:40:24;;;;;;;7.20;3.40;;;17.70;99.90;;;;;;5081218;28;20473;-70
2023/08/27 06:43:10;;;;;;;9.90;3.80;;;17.70;99.90;;;;;;5081953;28;20458;-70
2023/08/27 06:45:56;;;;;;;12.53;3.40;;;17.80;99.90;;;;;;5080033;28;20931;-70
2023/08/27 06:48:41;;;;;;;6.00;3.40;;;17.80;99.90;;;;;;5080812;28;20508;-70
2023/08/27 06:51:28;;;;;;;7.40;3.17;;;17.90;99.90;;;;;;5074315;28;20492;-70
2023/08/27 06:54:15;;;;;;;9.47;3.63;;;17.90;99.90;;;;;;5083147;28;20831;-70
2023/08/27 06:57:00;;;;;;;8.40;3.87;;;18.00;99.90;;;;;;5080833;28;20413;-70
2023/08/27 06:59:46;;;;;;;11.40;3.37;;;18.00;99.90;;;;;;5084515;28;20593;-69
2023/08/27 07:02:32;;;;;;;10.17;3.57;;;18.00;99.90;;;;;;5078246;28;20467;-70
2023/08/27 07:05:18;;;;;;;5.33;3.77;;;18.10;99.90;;;;;;5082509;28;20444;-70
2023/08/27 07:08:05;;;;;;;7.73;3.67;;;18.10;99.90;;;;;;5078046;28;20972;-70
2023/08/27 07:10:52;;;;;;;5.73;3.90;;;18.10;99.90;;;;;;5078516;28;20468;-70
2023/08/27 07:13:37;;;;;;;4.20;3.50;;;18.10;99.90;;;;;;5073824;28;20965;-70
2023/08/27 07:16:23;;;;;;;6.53;3.50;;;18.20;99.90;;;;;;5077029;28;20473;-70
2023/08/27 07:19:09;;;;;;;10.03;4.47;;;18.20;99.90;;;;;;5082218;28;20969;-70
2023/08/27 07:21:54;;;;;;;12.93;4.07;;;18.20;99.90;;;;;;5081320;28;20621;-70
2023/08/27 07:24:40;;;;;;;10.47;4.80;;;18.20;99.90;;;;;;5083883;28;20781;-70
2023/08/27 07:27:27;;;;;;;9.83;3.23;;;18.30;99.90;;;;;;5078852;28;20435;-70
2023/08/27 07:30:13;;;;;;;7.37;4.20;;;18.40;99.90;;;;;;5080538;28;20513;-70
2023/08/27 07:32:59;;;;;;;6.60;3.63;;;18.40;99.90;;;;;;5071019;28;20460;-70
2023/08/27 07:35:45;;;;;;;10.60;4.60;;;18.40;99.90;;;;;;5075155;28;20455;-70
2023/08/27 07:38:31;;;;;;;7.30;4.20;;;18.50;99.90;;;;;;5080576;28;20419;-70
2023/08/27 07:41:17;;;;;;;8.23;4.70;;;18.60;99.90;;;;;;5078493;28;20835;-70
2023/08/27 07:44:05;;;;;;;7.73;5.10;;;18.60;99.90;;;;;;5081188;28;20507;-70
2023/08/27 07:46:50;;;;;;;9.33;4.97;;;18.70;99.90;;;;;;5080865;28;20877;-70
2023/08/27 07:49:36;;;;;;;6.80;5.73;;;18.70;99.90;;;;;;5072740;28;20523;-70
2023/08/27 07:52:22;;;;;;;9.37;5.80;;;18.80;99.90;;;;;;5073532;28;20623;-70
2023/08/27 07:55:08;;;;;;;9.07;6.30;;;18.90;99.90;;;;;;5081633;28;20523;-70
2023/08/27 07:57:53;;;;;;;10.10;6.60;;;19.00;99.90;;;;;;5074761;28;20561;-70
2023/08/27 08:00:40;;;;;;;18.97;9.70;;;19.00;99.90;;;;;;5077050;28;20433;-70
2023/08/27 08:03:26;;;;;;;15.43;9.60;;;19.10;99.90;;;;;;5074830;28;20453;-70
2023/08/27 08:06:12;;;;;;;11.30;8.90;;;19.00;99.90;;;;;;5072414;28;20988;-70
2023/08/27 08:08:58;;;;;;;13.90;8.80;;;19.10;99.90;;;;;;5075461;28;20455;-70
2023/08/27 08:11:43;;;;;;;17.43;9.43;;;19.10;99.90;;;;;;5079566;28;21085;-70
2023/08/27 08:14:29;;;;;;;17.27;9.60;;;19.20;99.90;;;;;;5082751;28;20432;-70
2023/08/27 08:17:16;;;;;;;13.20;8.80;;;19.00;99.90;;;;;;5073621;28;20422;-69
2023/08/27 08:20:02;;;;;;;14.00;9.03;;;19.10;99.90;;;;;;5075672;28;20522;-70
2023/08/27 08:22:47;;;;;;;12.80;7.93;;;19.10;99.90;;;;;;5079551;28;20458;-70
2023/08/27 08:25:35;;;;;;;15.80;9.13;;;19.20;99.90;;;;;;5076625;28;20965;-70
2023/08/27 08:28:22;;;;;;;11.37;8.83;;;19.20;99.90;;;;;;5075433;28;20522;-70
2023/08/27 08:31:07;;;;;;;18.57;9.20;;;19.00;99.90;;;;;;5080648;28;20901;-70
2023/08/27 08:33:54;;;;;;;11.10;9.03;;;19.10;99.90;;;;;;5077457;28;20816;-70
2023/08/27 08:36:40;;;;;;;16.00;9.67;;;19.20;99.90;;;;;;5074709;28;20427;-70
2023/08/27 08:39:26;;;;;;;11.60;8.90;;;19.20;99.90;;;;;;5077125;28;20452;-70
2023/08/27 08:42:20;;;;;;;12.17;9.13;;;19.30;99.90;;;;;;5079308;28;20480;-70
2023/08/27 08:45:13;;;;;;;14.50;8.73;;;19.10;99.90;;;;;;5082409;28;20424;-70
2023/08/27 08:48:02;;;;;;;10.37;8.80;;;19.20;99.90;;;;;;5072298;28;20462;-70
2023/08/27 08:50:53;;;;;;;12.70;9.40;;;19.30;99.90;;;;;;5079870;28;20602;-70
2023/08/27 08:53:41;;;;;;;15.33;8.47;;;19.30;99.90;;;;;;5080925;28;20452;-70
2023/08/27 08:56:32;;;;;;;12.23;7.77;;;19.30;99.90;;;;;;5083609;28;20448;-70
2023/08/27 08:59:19;;;;;;;13.13;8.30;;;19.50;99.90;;;;;;5081181;28;20486;-70
2023/08/27 09:02:07;;;;;;;12.47;8.00;;;19.70;99.90;;;;;;5078676;28;20451;-70
2023/08/27 09:04:53;;;;;;;13.70;7.27;;;19.80;99.90;;;;;;5084347;28;20493;-70
2023/08/27 09:07:41;;;;;;;8.70;6.20;;;19.90;99.90;;;;;;5080520;28;20500;-70
2023/08/27 09:10:27;;;;;;;10.83;7.07;;;19.90;99.90;;;;;;5084205;28;20464;-70
2023/08/27 09:13:19;;;;;;;10.50;7.43;;;20.10;99.90;;;;;;5085207;28;20482;-70
2023/08/27 09:16:05;;;;;;;14.20;6.40;;;20.30;99.90;;;;;;5077951;28;20595;-70
2023/08/27 09:18:51;;;;;;;11.03;7.10;;;20.40;99.90;;;;;;5080508;28;20440;-71
2023/08/27 09:21:37;;;;;;;12.50;6.47;;;20.50;99.90;;;;;;5082898;28;20442;-71
2023/08/27 09:24:24;;;;;;;14.40;7.67;;;20.60;99.90;;;;;;5077057;28;20425;-70
2023/08/27 09:27:11;;;;;;;10.90;6.80;;;20.50;99.90;;;;;;5081148;28;20523;-71
2023/08/27 09:30:00;;;;;;;9.97;6.37;;;20.40;99.90;;;;;;5083211;28;20436;-71
2023/08/27 09:32:46;;;;;;;13.60;6.90;;;20.20;99.90;;;;;;5083093;28;20453;-71
2023/08/27 09:35:39;;;;;;;10.27;5.73;;;20.10;99.90;;;;;;5084109;28;20418;-71
2023/08/27 09:38:27;;;;;;;8.73;5.00;;;20.10;99.90;;;;;;5079450;28;20469;-71
2023/08/27 09:41:16;;;;;;;7.77;4.90;;;20.00;99.90;;;;;;5078255;28;20456;-71
2023/08/27 09:44:02;;;;;;;11.20;5.40;;;20.20;99.90;;;;;;5078510;28;20489;-71
2023/08/27 09:46:50;;;;;;;8.70;5.70;;;20.30;99.90;;;;;;5079693;28;20468;-71
2023/08/27 09:49:41;;;;;;;8.83;6.40;;;20.40;99.90;;;;;;5076477;28;21080;-71
2023/08/27 09:52:27;;;;;;;8.43;6.43;;;20.40;99.90;;;;;;5077208;28;20475;-72
2023/08/27 09:55:14;;;;;;;11.00;5.30;;;20.50;99.90;;;;;;5078121;28;20445;-71
2023/08/27 09:58:02;;;;;;;9.60;5.80;;;20.60;99.90;;;;;;5078075;28;20587;-70
2023/08/27 10:00:48;;;;;;;9.67;5.70;;;20.70;99.90;;;;;;5076510;28;20534;-71
2023/08/27 10:03:34;;;;;;;8.63;5.40;;;20.70;99.90;;;;;;5077215;28;20446;-71
2023/08/27 10:06:19;;;;;;;7.50;5.33;;;20.80;99.90;;;;;;5076733;28;21017;-72
2023/08/27 10:09:05;;;;;;;8.50;5.40;;;20.80;99.90;;;;;;5080865;28;20445;-71
2023/08/27 10:11:52;;;;;;;6.73;5.43;;;20.70;99.90;;;;;;5078433;28;20455;-71
2023/08/27 10:14:41;;;;;;;5.70;4.40;;;20.70;99.90;;;;;;5081973;28;20450;-71
2023/08/27 10:17:27;;;;;;;6.80;4.63;;;20.60;99.90;;;;;;5078506;28;20520;-71
2023/08/27 10:20:13;;;;;;;14.03;5.50;;;20.70;99.90;;;;;;5080892;28;20420;-71
2023/08/27 10:22:59;;;;;;;5.30;4.17;;;20.60;99.90;;;;;;5076712;28;20494;-71
2023/08/27 10:25:47;;;;;;;5.40;4.50;;;20.60;99.90;;;;;;5079032;28;20466;-71
2023/08/27 10:28:34;;;;;;;8.40;4.03;;;20.60;99.90;;;;;;5073042;28;20416;-71
2023/08/27 10:31:21;;;;;;;6.60;3.70;;;20.80;99.90;;;;;;5075841;28;20494;-71
2023/08/27 10:34:08;;;;;;;6.50;4.03;;;20.90;99.90;;;;;;5077470;28;20530;-71
2023/08/27 10:36:53;;;;;;;5.50;3.73;;;20.90;99.90;;;;;;5076886;28;20446;-71
2023/08/27 10:39:40;;;;;;;6.50;3.73;;;20.90;99.90;;;;;;5077097;28;20528;-71
2023/08/27 10:42:33;;;;;;;7.07;4.30;;;21.10;99.90;;;;;;5079033;28;22600;-71
2023/08/27 10:45:20;;;;;;;11.37;4.27;;;21.20;99.90;;;;;;5078357;28;20433;-71
2023/08/27 10:48:23;;;;;;;8.07;4.90;;;21.30;99.90;;;;;;5074009;28;20456;-71
2023/08/27 10:51:11;;;;;;;4.70;4.20;;;21.40;99.90;;;;;;5079109;28;20505;-71
2023/08/27 10:53:58;;;;;;;4.63;3.53;;;21.60;99.90;;;;;;5081464;28;20446;-71
2023/08/27 10:56:47;;;;;;;8.03;3.90;;;21.60;99.90;;;;;;5074802;28;20487;-71
2023/08/27 10:59:33;;;;;;;6.77;4.10;;;21.60;99.90;;;;;;5075071;28;20449;-71
2023/08/27 11:02:20;;;;;;;9.10;4.20;;;21.40;99.90;;;;;;5074784;28;20468;-72
2023/08/27 11:05:10;;;;;;;6.97;4.00;;;21.40;99.90;;;;;;5076710;28;20416;-71
2023/08/27 11:07:59;;;;;;;8.90;3.87;;;21.30;99.90;;;;;;5078980;28;20551;-72
2023/08/27 11:10:46;;;;;;;6.70;3.90;;;21.30;99.90;;;;;;5082039;28;20514;-72
2023/08/27 11:13:36;;;;;;;8.20;3.90;;;21.40;99.90;;;;;;5077844;28;20449;-72
2023/08/27 11:16:23;;;;;;;6.27;3.17;;;21.60;99.90;;;;;;5077107;28;20754;-72
2023/08/27 11:19:11;;;;;;;6.00;2.70;;;21.60;99.90;;;;;;5077712;28;20444;-72
2023/08/27 11:22:07;;;;;;;6.70;3.20;;;21.60;99.90;;;;;;5073500;28;21171;-72
2023/08/27 11:24:55;;;;;;;7.43;3.13;;;21.80;99.90;;;;;;5076890;28;20498;-72
2023/08/27 11:27:41;;;;;;;7.03;2.40;;;21.90;99.90;;;;;;5084807;28;20411;-72
2023/08/27 11:30:27;;;;;;;4.50;2.00;;;22.00;99.90;;;;;;5087252;28;20982;-72
2023/08/27 11:33:21;;;;;;;2.90;2.00;;;22.20;99.90;;;;;;5076997;28;20483;-71
2023/08/27 11:36:07;;;;;;;7.07;2.77;;;22.50;99.90;;;;;;5084552;28;20964;-72
2023/08/27 11:38:59;;;;;;;3.80;2.60;;;22.50;99.90;;;;;;5084470;28;20445;-72
2023/08/27 11:41:45;;;;;;;5.47;2.80;;;22.20;99.90;;;;;;5081956;28;20474;-71
2023/08/27 11:44:30;;;;;;;10.67;2.93;;;22.00;99.90;;;;;;5082931;28;20446;-72
2023/08/27 11:47:16;;;;;;;4.90;2.93;;;22.00;99.90;;;;;;5074720;28;20462;-71
2023/08/27 11:50:08;;;;;;;5.33;2.77;;;22.00;99.90;;;;;;5078783;28;20432;-71
2023/08/27 11:52:55;;;;;;;4.00;2.47;;;21.70;99.90;;;;;;5078088;28;20482;-72
2023/08/27 11:55:43;;;;;;;4.73;2.47;;;21.60;99.90;;;;;;5082842;28;20932;-72
2023/08/27 11:58:30;;;;;;;4.03;3.00;;;21.50;99.90;;;;;;5080095;28;20495;-72
2023/08/27 12:01:17;;;;;;;3.90;2.47;;;21.20;99.90;;;;;;5082998;28;20834;-72
2023/08/27 12:04:04;;;;;;;4.10;2.70;;;21.00;99.90;;;;;;5078240;28;20441;-72
2023/08/27 12:06:54;;;;;;;9.90;2.50;;;20.90;99.90;;;;;;5074939;28;20868;-71
2023/08/27 12:09:41;;;;;;;5.73;3.33;;;21.00;99.90;;;;;;5077861;28;20457;-72
2023/08/27 12:12:28;;;;;;;5.03;3.03;;;20.90;99.90;;;;;;5077410;28;20488;-72
2023/08/27 12:15:15;;;;;;;6.43;3.13;;;20.80;99.90;;;;;;5082361;28;20445;-72
2023/08/27 12:18:02;;;;;;;6.30;2.80;;;20.60;99.90;;;;;;5080005;28;20452;-72
2023/08/27 12:20:49;;;;;;;3.97;2.83;;;20.40;99.90;;;;;;5089566;28;20411;-72
2023/08/27 12:23:35;;;;;;;7.63;2.63;;;20.40;99.90;;;;;;5084074;28;20933;-71
2023/08/27 12:26:22;;;;;;;7.33;3.27;;;20.40;99.90;;;;;;5083178;28;20419;-72
2023/08/27 12:29:13;;;;;;;5.20;3.87;;;20.30;99.90;;;;;;5087478;28;20454;-73
2023/08/27 12:32:07;;;;;;;5.40;3.53;;;19.90;99.90;;;;;;5079497;28;20840;-71
2023/08/27 12:34:54;;;;;;;6.93;3.20;;;19.80;99.90;;;;;;5084982;28;20567;-71
2023/08/27 12:37:39;;;;;;;5.07;4.40;;;19.80;99.90;;;;;;5083783;28;20440;-71
2023/08/27 12:40:25;;;;;;;6.33;3.70;;;19.70;99.90;;;;;;5074007;28;20500;-71
2023/08/27 12:43:11;;;;;;;5.83;4.20;;;19.60;99.90;;;;;;5086840;28;22257;-71
2023/08/27 12:45:58;;;;;;;6.30;4.63;;;19.60;99.90;;;;;;5088906;28;21122;-71
2023/08/27 12:48:45;;;;;;;5.93;4.40;;;19.60;99.90;;;;;;5083543;28;20569;-73
2023/08/27 12:51:32;;;;;;;8.77;4.23;;;19.30;99.90;;;;;;5088394;28;20449;-70
2023/08/27 12:54:18;;;;;;;6.23;4.17;;;19.20;99.90;;;;;;5085165;28;20465;-70
2023/08/27 12:57:05;;;;;;;11.83;4.30;;;19.10;99.90;;;;;;5080222;28;20786;-71
2023/08/27 12:59:51;;;;;;;4.10;3.30;;;19.10;99.90;;;;;;5084808;28;20426;-70
2023/08/27 13:02:38;;;;;;;8.63;4.97;;;19.20;99.90;;;;;;5083491;28;20475;-70
2023/08/27 13:05:24;;;;;;;8.13;3.30;;;19.40;99.90;;;;;;5077978;28;20440;-70
2023/08/27 13:08:09;;;;;;;3.83;2.90;;;19.60;99.90;;;;;;5084152;28;20958;-70
2023/08/27 13:10:55;;;;;;;4.63;2.87;;;19.80;99.90;;;;;;5079816;28;20506;-70
2023/08/27 13:13:41;;;;;;;4.60;3.00;;;20.10;99.90;;;;;;5080304;28;20851;-70
2023/08/27 13:16:27;;;;;;;6.43;3.20;;;20.40;99.90;;;;;;5075761;28;20446;-70
2023/08/27 13:19:15;;;;;;;3.73;3.17;;;20.80;99.90;;;;;;5085873;28;20462;-70
2023/08/27 13:22:00;;;;;;;6.07;3.00;;;21.10;99.90;;;;;;5079095;28;20492;-71
2023/08/27 13:24:46;;;;;;;7.57;3.60;;;21.10;99.90;;;;;;5077752;28;20440;-71
2023/08/27 13:27:32;;;;;;;11.73;3.07;;;21.20;99.90;;;;;;5078021;28;20544;-71
2023/08/27 13:30:20;;;;;;;4.23;2.93;;;21.30;99.90;;;;;;5083293;28;20501;-71
2023/08/27 13:33:05;;;;;;;3.60;3.23;;;21.50;99.90;;;;;;5080915;28;20451;-71
2023/08/27 13:35:52;;;;;;;7.80;4.00;;;21.50;99.90;;;;;;5081277;28;20442;-70
2023/08/27 13:38:38;;;;;;;4.97;3.30;;;21.30;99.90;;;;;;5082052;28;20423;-70
2023/08/27 13:41:24;;;;;;;8.80;3.97;;;21.10;99.90;;;;;;5083329;28;20443;-70
2023/08/27 13:44:10;;;;;;;4.57;3.40;;;20.80;99.90;;;;;;5082974;28;20509;-71
2023/08/27 13:46:55;;;;;;;11.53;4.00;;;20.60;99.90;;;;;;5084798;28;20444;-71
2023/08/27 13:49:41;;;;;;;6.97;3.60;;;20.50;99.90;;;;;;5085879;28;20416;-71
2023/08/27 13:52:28;;;;;;;5.87;2.90;;;20.60;99.90;;;;;;5081297;28;20473;-71
2023/08/27 13:55:13;;;;;;;7.13;3.37;;;20.60;99.90;;;;;;5076133;28;20452;-71
2023/08/27 13:57:59;;;;;;;5.00;2.70;;;20.60;99.90;;;;;;5079188;28;20453;-70
2023/08/27 14:00:45;;;;;;;7.63;3.30;;;20.60;99.90;;;;;;5082209;28;20441;-70
2023/08/27 14:03:31;;;;;;;3.43;2.63;;;20.80;99.90;;;;;;5078577;28;20438;-70
2023/08/27 14:06:17;;;;;;;5.60;2.50;;;21.10;99.90;;;;;;5078120;28;20441;-70
2023/08/27 14:09:05;;;;;;;4.20;2.37;;;21.10;99.90;;;;;;5082077;28;20564;-70
2023/08/27 14:11:50;;;;;;;3.30;2.60;;;21.00;99.90;;;;;;5078786;28;20489;-70
2023/08/27 14:14:36;;;;;;;5.00;2.67;;;20.90;99.90;;;;;;5077955;28;20450;-71
2023/08/27 14:17:22;;;;;;;4.07;2.70;;;20.80;99.90;;;;;;5077096;28;20441;-71
2023/08/27 14:20:09;;;;;;;9.93;2.50;;;20.80;99.90;;;;;;5077416;28;22477;-71
2023/08/27 14:22:54;;;;;;;4.33;3.30;;;20.70;99.90;;;;;;5079618;28;20545;-71
2023/08/27 14:25:42;;;;;;;5.20;3.00;;;20.60;99.90;;;;;;5088325;28;20452;-71